createdAt,value
2023-01-29T00:02:15.436Z,-77
2023-01-29T00:05:27.988Z,-79
2023-01-29T00:08:36.478Z,-79
2023-01-29T00:11:45.913Z,-78
2023-01-29T00:14:51.759Z,-78
2023-01-29T00:17:58.264Z,-79
2023-01-29T00:21:04.043Z,-78
2023-01-29T00:24:11.363Z,-79
2023-01-29T00:27:19.741Z,-79
2023-01-29T00:30:28.947Z,-79
2023-01-29T00:33:34.761Z,-79
2023-01-29T00:36:41.540Z,-79
2023-01-29T00:39:48.428Z,-80
2023-01-29T00:43:10.108Z,-79
2023-01-29T00:46:17.560Z,-79
2023-01-29T00:49:24.669Z,-79
2023-01-29T00:52:31.193Z,-79
2023-01-29T00:55:37.867Z,-79
2023-01-29T00:58:46.249Z,-79
2023-01-29T01:02:05.303Z,-79
2023-01-29T01:05:18.139Z,-80
2023-01-29T01:08:37.289Z,-80
2023-01-29T01:11:43.035Z,-78
2023-01-29T01:14:52.654Z,-78
2023-01-29T01:18:01.465Z,-78
2023-01-29T01:21:09.238Z,-79
2023-01-29T01:24:15.632Z,-78
2023-01-29T01:27:22.877Z,-79
2023-01-29T01:30:33.201Z,-77
2023-01-29T01:33:40.693Z,-79
2023-01-29T01:36:46.490Z,-78
2023-01-29T01:39:57.964Z,-79
2023-01-29T01:43:05.443Z,-79
2023-01-29T01:46:15.226Z,-79
2023-01-29T01:49:24.506Z,-79
2023-01-29T01:52:35.259Z,-78
2023-01-29T01:55:51.749Z,-80
2023-01-29T01:59:02.368Z,-79
2023-01-29T02:02:23.829Z,-79
2023-01-29T02:05:46.095Z,-80
2023-01-29T02:09:13.921Z,-78
2023-01-29T02:12:22.865Z,-79
2023-01-29T02:15:28.875Z,-79
2023-01-29T02:18:39.673Z,-79
2023-01-29T02:22:25.932Z,-79
2023-01-29T02:26:13.456Z,-79
2023-01-29T02:29:35.911Z,-84
2023-01-29T02:32:58.872Z,-81
2023-01-29T02:36:26.035Z,-80
2023-01-29T02:39:42.444Z,-80
2023-01-29T02:43:06.542Z,-82
2023-01-29T02:46:31.831Z,-81
2023-01-29T02:49:50.372Z,-80
2023-01-29T02:53:09.597Z,-82
2023-01-29T02:56:29.687Z,-82
2023-01-29T02:59:48.027Z,-81
2023-01-29T03:03:06.857Z,-82
2023-01-29T03:06:24.399Z,-81
2023-01-29T03:09:42.584Z,-82
2023-01-29T03:12:59.954Z,-79
2023-01-29T03:16:19.230Z,-81
2023-01-29T03:19:40.010Z,-82
2023-01-29T03:23:07.949Z,-78
2023-01-29T03:26:33.728Z,-81
2023-01-29T03:29:58.847Z,-80
2023-01-29T03:33:23.766Z,-78
2023-01-29T03:36:45.840Z,-78
2023-01-29T03:39:55.752Z,-79
2023-01-29T03:43:14.882Z,-79
2023-01-29T03:46:34.332Z,-79
2023-01-29T03:50:00.997Z,-79
2023-01-29T03:53:24.074Z,-79
2023-01-29T03:56:52.736Z,-78
2023-01-29T04:00:17.495Z,-80
2023-01-29T04:03:43.083Z,-79
2023-01-29T04:06:56.916Z,-79
2023-01-29T04:10:15.229Z,-78
2023-01-29T04:13:22.828Z,-77
2023-01-29T04:16:39.227Z,-80
2023-01-29T04:19:54.855Z,-77
2023-01-29T04:23:01.491Z,-79
2023-01-29T04:26:42.139Z,-79
2023-01-29T04:30:13.953Z,-79
2023-01-29T04:33:40.209Z,-79
2023-01-29T04:37:05.478Z,-79
2023-01-29T04:40:27.219Z,-77
2023-01-29T04:43:48.940Z,-80
2023-01-29T04:47:15.829Z,-80
2023-01-29T04:50:37.182Z,-78
2023-01-29T04:54:03.096Z,-79
2023-01-29T04:57:25.702Z,-79
2023-01-29T05:00:45.299Z,-78
2023-01-29T05:03:58.189Z,-78
2023-01-29T05:07:09.969Z,-78
2023-01-29T05:10:29.280Z,-77
2023-01-29T05:13:45.103Z,-78
2023-01-29T05:17:01.405Z,-77
2023-01-29T05:20:09.071Z,-78
2023-01-29T05:23:21.286Z,-78
2023-01-29T05:26:39.857Z,-79
2023-01-29T05:29:50.299Z,-79
2023-01-29T05:32:58.658Z,-79
2023-01-29T05:36:06.943Z,-78
2023-01-29T05:39:12.852Z,-79
2023-01-29T05:42:22.725Z,-79
2023-01-29T05:45:29.050Z,-79
2023-01-29T05:48:38.360Z,-79
2023-01-29T05:51:44.306Z,-77
2023-01-29T05:54:50.870Z,-80
2023-01-29T05:57:56.635Z,-79
2023-01-29T06:01:13.338Z,-80
2023-01-29T06:04:22.205Z,-80
2023-01-29T06:07:29.802Z,-80
2023-01-29T06:10:36.276Z,-79
2023-01-29T06:13:43.627Z,-80
2023-01-29T06:16:49.559Z,-79
2023-01-29T06:19:58.965Z,-79
2023-01-29T06:23:05.151Z,-79
2023-01-29T06:26:17.302Z,-81
2023-01-29T06:29:23.086Z,-79
2023-01-29T06:32:30.632Z,-80
2023-01-29T06:35:39.145Z,-79
2023-01-29T06:38:45.771Z,-79
2023-01-29T06:41:51.767Z,-79
2023-01-29T06:44:58.419Z,-77
2023-01-29T06:48:04.124Z,-77
2023-01-29T06:51:14.857Z,-77
2023-01-29T06:54:20.650Z,-77
2023-01-29T06:57:27.638Z,-76
2023-01-29T07:00:33.645Z,-77
2023-01-29T07:03:41.811Z,-78
2023-01-29T07:06:50.250Z,-78
2023-01-29T07:09:56.747Z,-77
2023-01-29T07:13:03.175Z,-77
2023-01-29T07:16:10.540Z,-79
2023-01-29T07:19:16.549Z,-77
2023-01-29T07:22:25.844Z,-77
2023-01-29T07:25:31.713Z,-78
2023-01-29T07:28:40.849Z,-78
2023-01-29T07:31:46.855Z,-78
2023-01-29T07:34:53.519Z,-76
2023-01-29T07:38:02.107Z,-77
2023-01-29T07:41:09.315Z,-77
2023-01-29T07:44:18.273Z,-79
2023-01-29T07:47:24.880Z,-78
2023-01-29T07:50:31.404Z,-77
2023-01-29T07:53:40.760Z,-77
2023-01-29T07:56:46.610Z,-78
2023-01-29T07:59:53.339Z,-77
2023-01-29T08:03:07.026Z,-77
2023-01-29T08:06:13.861Z,-77
2023-01-29T08:09:22.339Z,-78
2023-01-29T08:12:29.064Z,-77
2023-01-29T08:15:39.215Z,-78
2023-01-29T08:18:47.967Z,-77
2023-01-29T08:21:53.709Z,-77
2023-01-29T08:25:08.318Z,-78
2023-01-29T08:28:14.944Z,-77
2023-01-29T08:31:23.422Z,-78
2023-01-29T08:34:29.272Z,-77
2023-01-29T08:37:36.207Z,-78
2023-01-29T08:40:47.415Z,-77
2023-01-29T08:43:53.953Z,-78
2023-01-29T08:46:59.785Z,-78
2023-01-29T08:50:06.542Z,-78
2023-01-29T08:53:13.146Z,-76
2023-01-29T08:56:22.340Z,-77
2023-01-29T08:59:28.283Z,-77
2023-01-29T09:02:35.039Z,-77
2023-01-29T09:05:43.310Z,-77
2023-01-29T09:08:51.332Z,-78
2023-01-29T09:11:59.923Z,-78
2023-01-29T09:15:10.661Z,-76
2023-01-29T09:18:25.058Z,-76
2023-01-29T09:21:34.801Z,-78
2023-01-29T09:24:40.626Z,-77
2023-01-29T09:27:49.751Z,-77
2023-01-29T09:30:55.741Z,-78
2023-01-29T09:34:02.351Z,-78
2023-01-29T09:37:08.323Z,-78
2023-01-29T09:40:29.420Z,-77
2023-01-29T09:43:52.203Z,-76
2023-01-29T09:47:05.281Z,-78
2023-01-29T09:50:21.359Z,-77
2023-01-29T09:53:42.494Z,-77
2023-01-29T09:56:51.374Z,-77
2023-01-29T10:00:03.042Z,-78
2023-01-29T10:03:38.990Z,-77
2023-01-29T10:07:10.529Z,-77
2023-01-29T10:10:46.494Z,-77
2023-01-29T10:14:14.702Z,-78
2023-01-29T10:17:53.319Z,-76
2023-01-29T10:21:27.790Z,-78
2023-01-29T10:24:44.724Z,-77
2023-01-29T10:27:58.172Z,-77
2023-01-29T10:31:18.812Z,-78
2023-01-29T10:34:46.092Z,-77
2023-01-29T10:37:56.885Z,-78
2023-01-29T10:41:52.536Z,-77
2023-01-29T10:45:29.141Z,-77
2023-01-29T10:48:58.297Z,-77
2023-01-29T10:52:29.269Z,-78
2023-01-29T10:55:54.141Z,-76
2023-01-29T10:59:08.105Z,-77
2023-01-29T11:02:21.480Z,-78
2023-01-29T11:05:37.550Z,-77
2023-01-29T11:08:59.049Z,-77
2023-01-29T11:12:13.633Z,-78
2023-01-29T11:15:29.132Z,-77
2023-01-29T11:18:57.733Z,-76
2023-01-29T11:22:05.089Z,-77
2023-01-29T11:25:21.764Z,-77
2023-01-29T11:28:44.275Z,-76
2023-01-29T11:31:51.256Z,-78
2023-01-29T11:35:04.465Z,-77
2023-01-29T11:38:22.527Z,-79
2023-01-29T11:41:31.744Z,-78
2023-01-29T11:44:44.991Z,-77
2023-01-29T11:47:55.745Z,-78
2023-01-29T11:51:06.481Z,-78
2023-01-29T11:54:22.724Z,-77
2023-01-29T11:57:38.887Z,-77
2023-01-29T12:00:55.504Z,-78
2023-01-29T12:04:02.877Z,-77
2023-01-29T12:07:18.948Z,-78
2023-01-29T12:10:37.320Z,-76
2023-01-29T12:13:47.267Z,-77
2023-01-29T12:17:04.413Z,-78
2023-01-29T12:20:21.403Z,-78
2023-01-29T12:23:41.848Z,-78
2023-01-29T12:26:58.186Z,-78
2023-01-29T12:30:22.577Z,-77
2023-01-29T12:33:42.411Z,-77
2023-01-29T12:36:59.639Z,-77
2023-01-29T12:40:13.891Z,-78
2023-01-29T12:43:25.453Z,-78
2023-01-29T12:46:46.655Z,-77
2023-01-29T12:50:04.829Z,-76
2023-01-29T12:53:29.785Z,-77
2023-01-29T12:56:42.493Z,-78
2023-01-29T12:59:58.244Z,-77
2023-01-29T13:03:24.081Z,-76
2023-01-29T13:06:42.594Z,-77
2023-01-29T13:10:00.439Z,-77
2023-01-29T13:13:19.463Z,-76
2023-01-29T13:16:34.626Z,-77
2023-01-29T13:19:53.317Z,-77
2023-01-29T13:23:13.307Z,-77
2023-01-29T13:26:22.897Z,-77
2023-01-29T13:29:33.292Z,-78
2023-01-29T13:32:40.403Z,-76
2023-01-29T13:35:50.135Z,-77
2023-01-29T13:39:09.191Z,-76
2023-01-29T13:42:24.146Z,-76
2023-01-29T13:45:45.188Z,-78
2023-01-29T13:48:58.362Z,-78
2023-01-29T13:52:30.974Z,-78
2023-01-29T13:55:40.690Z,-78
2023-01-29T13:58:59.167Z,-78
2023-01-29T14:02:22.135Z,-78
2023-01-29T14:05:45.189Z,-78
2023-01-29T14:08:53.635Z,-78
2023-01-29T14:12:00.330Z,-77
2023-01-29T14:15:30.862Z,-78
2023-01-29T14:18:48.067Z,-78
2023-01-29T14:21:54.437Z,-77
2023-01-29T14:25:08.954Z,-78
2023-01-29T14:28:33.889Z,-77
2023-01-29T14:31:46.871Z,-77
2023-01-29T14:35:02.773Z,-78
2023-01-29T14:38:17.151Z,-78
2023-01-29T14:41:34.392Z,-77
2023-01-29T14:45:13.102Z,-79
2023-01-29T14:48:41.754Z,-78
2023-01-29T14:51:50.076Z,-78
2023-01-29T14:55:04.548Z,-78
2023-01-29T14:58:22.155Z,-77
2023-01-29T15:01:37.221Z,-77
2023-01-29T15:04:52.993Z,-76
2023-01-29T15:08:09.468Z,-77
2023-01-29T15:11:36.590Z,-78
2023-01-29T15:14:58.748Z,-77
2023-01-29T15:18:17.737Z,-76
2023-01-29T15:21:23.941Z,-78
2023-01-29T15:24:31.074Z,-77
2023-01-29T15:27:38.321Z,-76
2023-01-29T15:30:49.274Z,-79
2023-01-29T15:34:00.443Z,-77
2023-01-29T15:37:06.974Z,-77
2023-01-29T15:40:22.092Z,-79
2023-01-29T15:43:32.277Z,-77
2023-01-29T15:46:45.594Z,-78
2023-01-29T15:49:52.797Z,-77
2023-01-29T15:53:15.239Z,-77
2023-01-29T15:56:29.031Z,-77
2023-01-29T15:59:51.858Z,-77
2023-01-29T16:03:03.151Z,-77
2023-01-29T16:06:12.285Z,-78
2023-01-29T16:09:26.339Z,-77
2023-01-29T16:12:32.371Z,-78
2023-01-29T16:15:57.230Z,-78
2023-01-29T16:19:17.329Z,-78
2023-01-29T16:22:25.483Z,-78
2023-01-29T16:25:34.180Z,-77
2023-01-29T16:28:44.782Z,-77
2023-01-29T16:32:00.666Z,-77
2023-01-29T16:35:18.594Z,-77
2023-01-29T16:38:35.311Z,-79
2023-01-29T16:41:43.570Z,-77
2023-01-29T16:44:54.467Z,-77
2023-01-29T16:48:22.033Z,-78
2023-01-29T16:51:34.668Z,-77
2023-01-29T16:54:46.271Z,-77
2023-01-29T16:57:57.755Z,-77
2023-01-29T17:01:11.342Z,-78
2023-01-29T17:04:21.770Z,-78
2023-01-29T17:07:32.627Z,-78
2023-01-29T17:10:38.911Z,-78
2023-01-29T17:13:49.028Z,-78
2023-01-29T17:16:59.601Z,-77
2023-01-29T17:20:18.556Z,-77
2023-01-29T17:23:26.951Z,-77
2023-01-29T17:26:35.209Z,-77
2023-01-29T17:29:41.781Z,-78
2023-01-29T17:32:48.566Z,-77
2023-01-29T17:35:57.080Z,-77
2023-01-29T17:39:17.967Z,-77
2023-01-29T17:42:23.637Z,-77
2023-01-29T17:45:30.586Z,-78
2023-01-29T17:48:36.394Z,-76
2023-01-29T17:51:44.966Z,-76
2023-01-29T17:54:53.328Z,-78
2023-01-29T17:58:00.256Z,-78
2023-01-29T18:01:06.123Z,-78
2023-01-29T18:04:12.973Z,-78
2023-01-29T18:07:18.930Z,-77
2023-01-29T18:10:28.614Z,-78
2023-01-29T18:13:36.308Z,-76
2023-01-29T18:16:43.172Z,-77
2023-01-29T18:19:51.207Z,-77
2023-01-29T18:22:58.030Z,-78
2023-01-29T18:26:07.945Z,-77
2023-01-29T18:29:14.733Z,-77
2023-01-29T18:32:20.534Z,-79
2023-01-29T18:35:30.574Z,-81
2023-01-29T18:38:36.600Z,-80
2023-01-29T18:41:45.909Z,-81
2023-01-29T18:44:52.030Z,-85
2023-01-29T18:47:58.930Z,-85
2023-01-29T18:51:05.057Z,-86
2023-01-29T18:54:15.667Z,-82
2023-01-29T18:58:29.356Z,-83
2023-01-29T19:00:51.061Z,-86
2023-01-29T19:03:59.365Z,-82
2023-01-29T19:07:07.709Z,-84
2023-01-29T19:10:17.274Z,-84
2023-01-29T19:13:27.074Z,-85
2023-01-29T19:16:33.086Z,-84
2023-01-29T19:19:39.667Z,-84
2023-01-29T19:22:45.631Z,-85
2023-01-29T19:25:52.451Z,-84
2023-01-29T19:29:01.178Z,-85
2023-01-29T19:32:09.070Z,-82
2023-01-29T19:35:15.134Z,-83
2023-01-29T19:38:21.933Z,-85
2023-01-29T19:41:28.007Z,-85
2023-01-29T19:44:39.096Z,-87
2023-01-29T19:47:46.778Z,-84
2023-01-29T19:50:58.249Z,-82
2023-01-29T19:54:04.336Z,-83
2023-01-29T19:57:11.335Z,-86
2023-01-29T20:00:24.035Z,-81
2023-01-29T20:03:32.164Z,-83
2023-01-29T20:06:38.242Z,-83
2023-01-29T20:09:45.008Z,-84
2023-01-29T20:12:51.004Z,-83
2023-01-29T20:16:03.131Z,-83
2023-01-29T20:19:14.269Z,-81
2023-01-29T20:22:21.648Z,-86
2023-01-29T20:25:27.616Z,-83
2023-01-29T20:28:38.139Z,-82
2023-01-29T20:31:53.899Z,-81
2023-01-29T20:35:00.614Z,-86
2023-01-29T20:38:08.372Z,-79
2023-01-29T20:41:19.427Z,-83
2023-01-29T20:44:25.389Z,-83
2023-01-29T20:47:36.645Z,-81
2023-01-29T20:50:44.266Z,-79
2023-01-29T20:53:51.932Z,-80
2023-01-29T20:56:58.119Z,-84
2023-01-29T21:00:05.346Z,-82
2023-01-29T21:03:14.160Z,-81
2023-01-29T21:06:22.740Z,-84
2023-01-29T21:09:28.615Z,-80
2023-01-29T21:12:38.198Z,-81
2023-01-29T21:15:46.995Z,-83
2023-01-29T21:18:59.699Z,-79
2023-01-29T21:22:07.118Z,-83
2023-01-29T21:25:15.032Z,-83
2023-01-29T21:28:22.177Z,-80
2023-01-29T21:31:28.868Z,-87
2023-01-29T21:34:37.599Z,-83
2023-01-29T21:37:45.167Z,-85
2023-01-29T21:40:51.263Z,-81
2023-01-29T21:43:58.161Z,-80
2023-01-29T21:47:12.564Z,-83
2023-01-29T21:50:23.541Z,-82
2023-01-29T21:53:29.757Z,-85
2023-01-29T21:56:36.587Z,-80
2023-01-29T21:59:42.510Z,-80
2023-01-29T22:02:51.415Z,-82
2023-01-29T22:06:00.011Z,-82
2023-01-29T22:09:09.644Z,-81
2023-01-29T22:12:15.617Z,-81
2023-01-29T22:15:23.876Z,-82
2023-01-29T22:18:30.570Z,-85
2023-01-29T22:21:40.065Z,-80
2023-01-29T22:24:46.804Z,-82
2023-01-29T22:27:53.509Z,-82
2023-01-29T22:31:04.827Z,-82
2023-01-29T22:34:12.897Z,-84
2023-01-29T22:37:21.406Z,-84
2023-01-29T22:40:28.127Z,-85
2023-01-29T22:43:34.171Z,-83
2023-01-29T22:46:40.873Z,-82
2023-01-29T22:49:50.193Z,-83
2023-01-29T22:52:59.551Z,-86
2023-01-29T22:56:05.526Z,-84
2023-01-29T22:59:13.902Z,-81
2023-01-29T23:02:19.696Z,-83
2023-01-29T23:05:26.454Z,-82
2023-01-29T23:08:36.254Z,-83
2023-01-29T23:11:42.809Z,-81
2023-01-29T23:14:48.711Z,-80
2023-01-29T23:17:55.322Z,-80
2023-01-29T23:21:01.274Z,-82
2023-01-29T23:24:13.209Z,-81
2023-01-29T23:27:19.183Z,-82
2023-01-29T23:30:25.802Z,-83
2023-01-29T23:33:31.909Z,-81
2023-01-29T23:36:38.485Z,-82
2023-01-29T23:39:46.909Z,-82
2023-01-29T23:42:56.173Z,-85
2023-01-29T23:46:02.514Z,-81
2023-01-29T23:49:09.314Z,-86
2023-01-29T23:52:15.186Z,-83
2023-01-29T23:55:24.581Z,-82
2023-01-29T23:58:31.903Z,-83
